Time;durP1;ratioP1;P1;durP2;ratioP2;P2;SDS_P1;SDS_P2;PMS_P1;PMS_P2;Temp;Humidity;BMP_temperature;BMP_pressure;BME280_temperature;BME280_humidity;BME280_pressure;Samples;Min_cycle;Max_cycle;Signal;HPM_P1;HPM_P2
2022/12/09 00:00:21;;;;;;;16.15;6.68;;;;;;;-20.67;49.12;98686.66;6324829;28;20052;-67
2022/12/09 00:03:23;;;;;;;13.82;7.30;;;;;;;-20.66;48.82;98687.50;6323824;28;20052;-66
2022/12/09 00:06:28;;;;;;;15.20;7.60;;;;;;;-20.66;49.09;98687.50;6324657;28;20063;-67
2022/12/09 00:09:32;;;;;;;19.08;7.60;;;;;;;-20.63;49.14;98697.81;6324165;28;20052;-67
2022/12/09 00:12:33;;;;;;;;;;;;;;;-20.57;49.40;98698.31;6324487;28;20075;-67
2022/12/09 00:15:38;;;;;;;20.00;6.70;;;;;;;-20.59;48.92;98684.81;6324313;28;20016;-67
2022/12/09 00:18:40;;;;;;;22.70;7.85;;;;;;;-20.55;49.41;98686.81;6324269;28;20052;-67
2022/12/09 00:21:42;;;;;;;16.27;7.68;;;;;;;-20.57;49.34;98688.31;6323802;28;20509;-66
2022/12/09 00:24:49;;;;;;;15.43;6.68;;;;;;;-20.57;49.32;98688.31;6323749;28;20052;-67
2022/12/09 00:27:50;;;;;;;16.88;8.77;;;;;;;-20.66;48.97;98675.00;6323530;28;20054;-67
2022/12/09 00:31:01;;;;;;;18.30;7.88;;;;;;;-20.62;49.01;98689.53;6324107;28;20051;-66
2022/12/09 00:34:05;;;;;;;18.65;7.30;;;;;;;-20.64;49.07;98691.91;6323821;28;20054;-67
2022/12/09 00:37:10;;;;;;;18.08;7.10;;;;;;;-20.64;49.61;98686.03;6323082;28;20051;-67
2022/12/09 00:40:13;;;;;;;19.10;7.22;;;;;;;-20.67;49.52;98685.78;6323355;28;20044;-67
2022/12/09 00:43:21;;;;;;;18.75;7.35;;;;;;;-20.71;48.95;98684.66;6323900;28;20052;-67
2022/12/09 00:46:27;;;;;;;22.63;7.28;;;;;;;-20.74;49.23;98674.38;6323782;28;20043;-67
2022/12/09 00:49:31;;;;;;;18.73;8.68;;;;;;;-20.82;49.69;98659.47;6322843;28;20429;-67
2022/12/09 00:52:35;;;;;;;15.10;8.55;;;;;;;-20.74;49.21;98679.38;6321281;28;20048;-67
2022/12/09 00:55:39;;;;;;;17.80;7.05;;;;;;;-20.78;49.65;98676.47;6323494;28;20097;-67
2022/12/09 00:58:40;;;;;;;11.18;5.88;;;;;;;-20.78;48.78;98671.47;6322360;28;20120;-67
2022/12/09 01:01:44;;;;;;;11.95;7.10;;;;;;;-20.73;49.65;98680.25;6323199;28;20501;-67
2022/12/09 01:04:49;;;;;;;17.05;6.65;;;;;;;-20.73;49.59;98681.13;6322159;28;20051;-68
2022/12/09 01:07:55;;;;;;;17.55;7.70;;;;;;;-20.71;49.72;98681.28;6323281;28;20047;-67
2022/12/09 01:10:59;;;;;;;14.48;7.50;;;;;;;-20.88;49.67;98649.81;6323016;28;20051;-67
2022/12/09 01:14:02;;;;;;;16.40;6.30;;;;;;;-20.70;49.62;98680.50;6322660;28;20044;-66
2022/12/09 01:17:03;;;;;;;19.77;6.27;;;;;;;-20.68;49.90;98679.03;6322714;28;20047;-68
2022/12/09 01:20:07;;;;;;;16.45;6.90;;;;;;;-20.68;49.59;98684.91;6322561;28;20505;-67
2022/12/09 01:23:12;;;;;;;26.75;6.97;;;;;;;-20.73;50.11;98681.13;6322608;28;20120;-67
2022/12/09 01:26:16;;;;;;;19.40;7.70;;;;;;;-20.70;49.70;98686.38;6322623;28;20055;-68
2022/12/09 01:29:20;;;;;;;27.17;13.38;;;;;;;-20.70;49.55;98695.53;6321696;28;20540;-67
2022/12/09 01:32:22;;;;;;;17.90;8.60;;;;;;;-20.70;49.33;98695.53;6321844;28;20391;-67
2022/12/09 01:35:23;;;;;;;20.65;7.03;;;;;;;-20.67;49.74;98703.28;6322190;28;20048;-67
2022/12/09 01:38:24;;;;;;;15.90;6.55;;;;;;;-20.67;49.47;98705.78;6321622;28;20047;-67
2022/12/09 01:41:26;;;;;;;9.90;4.93;;;;;;;-20.71;50.10;98704.66;6321811;28;20051;-67
2022/12/09 01:44:32;;;;;;;27.50;8.57;;;;;;;-20.77;49.55;98698.25;6321860;28;20063;-67
2022/12/09 01:47:33;;;;;;;18.05;6.18;;;;;;;-20.73;50.21;98705.28;6321563;28;20040;-67
2022/12/09 01:50:41;;;;;;;21.33;6.50;;;;;;;-21.07;49.79;98642.38;6321891;28;20044;-67
2022/12/09 01:53:50;;;;;;;27.65;15.70;;;;;;;-20.75;49.82;98691.75;6322118;28;20047;-68
2022/12/09 01:56:55;;;;;;;39.60;24.38;;;;;;;-20.73;50.40;98695.28;6321726;28;20136;-67
2022/12/09 02:00:00;;;;;;;22.60;10.25;;;;;;;-20.75;49.60;98701.75;6321202;28;20565;-67
2022/12/09 02:03:02;;;;;;;20.90;8.68;;;;;;;-20.78;49.92;98701.50;6321378;28;20248;-67
2022/12/09 02:06:06;;;;;;;20.73;8.23;;;;;;;-20.74;50.21;98708.53;6321144;28;20369;-67
2022/12/09 02:09:13;;;;;;;29.17;8.43;;;;;;;-20.72;50.02;98712.03;6321255;28;20048;-67
2022/12/09 02:12:52;;;;;;;32.92;9.88;;;;;;;-20.71;50.51;98704.66;6320835;28;20040;-67
2022/12/09 02:16:04;;;;;;;38.63;12.90;;;;;;;-20.70;50.18;98703.03;6286072;28;20048;-68
2022/12/09 02:19:54;;;;;;;36.50;14.98;;;;;;;-20.74;49.80;98703.53;6321127;28;20502;-67
2022/12/09 02:23:00;;;;;;;38.53;17.35;;;;;;;-20.80;50.20;98697.97;6321446;28;20051;-67
2022/12/09 02:26:22;;;;;;;33.30;15.68;;;;;;;-20.85;49.96;98705.13;6320831;28;20057;-68
2022/12/09 02:30:10;;;;;;;50.88;17.58;;;;;;;-20.87;50.22;98707.47;6321247;28;20048;-67
2022/12/09 02:33:35;;;;;;;35.13;15.75;;;;;;;-20.90;50.49;98702.22;6218605;28;20153;-70
2022/12/09 02:36:55;;;;;;;41.47;16.95;;;;;;;-20.92;50.39;98708.69;6230189;28;20062;-68
2022/12/09 02:40:10;;;;;;;37.10;15.65;;;;;;;-20.96;49.53;98709.19;6319935;28;20055;-69
2022/12/09 02:43:31;;;;;;;36.67;15.68;;;;;;;-20.95;50.00;98718.44;6320877;28;20123;-68
2022/12/09 02:46:35;;;;;;;28.48;14.57;;;;;;;-21.01;50.01;98710.41;6319844;28;20055;-69
2022/12/09 02:49:45;;;;;;;26.98;13.38;;;;;;;-20.96;49.99;98721.69;6320543;28;20424;-68
2022/12/09 02:52:52;;;;;;;30.17;15.50;;;;;;;-20.93;49.97;98726.97;6319873;28;20059;-67
2022/12/09 02:55:55;;;;;;;36.03;16.40;;;;;;;-20.95;49.77;98735.06;6320744;28;20078;-68
2022/12/09 02:58:59;;;;;;;31.65;16.88;;;;;;;-20.97;50.37;98734.97;6318843;28;20056;-67
2022/12/09 03:02:25;;;;;;;30.15;18.05;;;;;;;-20.94;50.15;98747.72;6319497;28;20044;-68
2022/12/09 03:05:40;;;;;;;28.70;14.05;;;;;;;-20.92;50.17;98743.72;6320266;28;20048;-67
2022/12/09 03:08:57;;;;;;;27.42;14.82;;;;;;;-20.87;50.26;98752.50;6319718;28;20048;-67
2022/12/09 03:12:05;;;;;;;30.92;14.88;;;;;;;-20.87;50.49;98765.00;6319400;28;20050;-67
2022/12/09 03:15:11;;;;;;;28.42;11.02;;;;;;;-20.83;50.03;98760.25;6319856;28;20050;-69
2022/12/09 03:18:19;;;;;;;22.05;11.38;;;;;;;-20.74;50.86;98761.09;6320303;28;20036;-67
2022/12/09 03:21:26;;;;;;;28.65;14.43;;;;;;;-20.60;50.76;98755.63;6320141;28;20501;-67
2022/12/09 03:24:36;;;;;;;45.92;21.42;;;;;;;-20.56;50.67;98765.13;6319999;28;20125;-67
2022/12/09 03:27:46;;;;;;;58.75;22.90;;;;;;;-20.57;50.80;98763.41;6319129;28;20040;-68
2022/12/09 03:30:53;;;;;;;46.88;19.27;;;;;;;-20.56;50.92;98762.63;6320142;28;20048;-67
2022/12/09 03:34:00;;;;;;;42.92;19.20;;;;;;;-20.62;50.89;98739.59;6318482;28;20041;-67
2022/12/09 03:37:05;;;;;;;45.33;16.70;;;;;;;-20.53;51.39;98752.88;6320320;28;20109;-68
2022/12/09 03:40:10;;;;;;;43.85;19.33;;;;;;;-20.56;51.73;98745.13;6319514;28;20059;-68
2022/12/09 03:43:22;;;;;;;57.17;25.20;;;;;;;-20.52;51.42;98757.09;6319089;28;20047;-67
2022/12/09 03:46:23;;;;;;;47.78;14.75;;;;;;;-20.52;51.25;98757.09;6319237;28;20040;-67
2022/12/09 03:49:27;;;;;;;58.42;16.98;;;;;;;-20.55;51.04;98761.00;6318348;28;20048;-68
2022/12/09 03:52:44;;;;;;;60.08;17.63;;;;;;;-20.58;50.82;98766.63;6319371;28;20048;-67
2022/12/09 03:56:11;;;;;;;46.25;18.67;;;;;;;-20.59;51.75;98757.38;6319841;28;20044;-67
2022/12/09 03:59:14;;;;;;;44.03;18.95;;;;;;;-20.57;51.29;98763.41;6319657;28;20413;-67
2022/12/09 04:02:16;;;;;;;54.75;20.63;;;;;;;-20.55;50.79;98769.38;6319269;28;20140;-66
2022/12/09 04:05:19;;;;;;;61.15;24.52;;;;;;;-20.55;51.46;98766.00;6319792;28;20036;-67
2022/12/09 04:08:25;;;;;;;69.38;26.15;;;;;;;-20.51;51.46;98758.88;6319866;28;20043;-67
2022/12/09 04:11:30;;;;;;;;;;;;;;;-20.46;51.52;98772.66;6320170;28;20043;-68
2022/12/09 04:14:32;;;;;;;52.55;21.23;;;;;;;-20.47;51.00;98770.88;6323462;28;19924;-68
2022/12/09 04:17:33;;;;;;;41.38;20.27;;;;;;;-20.51;50.87;98781.41;6324296;28;20047;-67
2022/12/09 04:20:37;;;;;;;51.50;20.88;;;;;;;-20.55;50.31;98776.91;6324205;28;20040;-67
2022/12/09 04:23:41;;;;;;;44.03;18.48;;;;;;;-20.46;50.33;98782.69;6322784;28;20044;-66
2022/12/09 04:26:46;;;;;;;56.00;21.88;;;;;;;-20.45;50.85;98769.41;6322114;28;20048;-67
2022/12/09 04:29:53;;;;;;;60.63;25.00;;;;;;;-20.57;50.34;98742.50;6323957;28;20064;-68
2022/12/09 04:32:59;;;;;;;47.88;21.30;;;;;;;-20.21;50.83;98779.72;6323900;28;20127;-68
2022/12/09 04:36:09;;;;;;;59.78;23.80;;;;;;;-20.12;50.94;98790.53;6323896;28;20405;-67
2022/12/09 04:39:14;;;;;;;55.72;23.17;;;;;;;-20.03;50.10;98791.31;6323476;28;20051;-69
2022/12/09 04:42:16;;;;;;;50.80;23.85;;;;;;;-19.94;50.50;98787.06;6322815;28;20055;-67
2022/12/09 04:45:21;;;;;;;56.75;22.95;;;;;;;-19.81;49.50;98790.56;6323570;28;20048;-67
2022/12/09 04:48:22;;;;;;;62.17;27.90;;;;;;;-19.75;49.83;98798.63;6323371;28;20040;-68
2022/12/09 04:51:23;;;;;;;62.42;25.60;;;;;;;-19.65;50.21;98793.59;6323042;28;20501;-68
2022/12/09 04:54:24;;;;;;;59.55;27.30;;;;;;;-19.51;50.00;98793.06;6321442;28;20046;-66
2022/12/09 04:57:28;;;;;;;52.03;22.95;;;;;;;-19.36;49.88;98790.06;6323292;28;20040;-68
2022/12/09 05:00:32;;;;;;;49.05;20.13;;;;;;;-19.25;49.81;98799.34;6323293;28;20417;-67
2022/12/09 05:03:39;;;;;;;45.83;19.73;;;;;;;-19.15;49.79;98786.78;6323075;28;20473;-67
2022/12/09 05:06:49;;;;;;;47.08;16.50;;;;;;;-19.04;50.24;98791.03;6322794;28;20043;-68
2022/12/09 05:09:58;;;;;;;38.63;15.40;;;;;;;-18.92;49.70;98790.28;6321624;28;20048;-67
2022/12/09 05:13:05;;;;;;;61.08;20.35;;;;;;;-18.78;49.78;98788.88;6322815;28;20078;-68
2022/12/09 05:16:12;;;;;;;38.05;14.25;;;;;;;-18.66;49.54;98795.69;6322450;28;20047;-68
2022/12/09 05:19:19;;;;;;;35.47;16.80;;;;;;;-18.54;49.54;98795.75;6322647;28;20043;-67
2022/12/09 05:22:28;;;;;;;46.78;17.23;;;;;;;-18.44;49.58;98792.34;6322423;28;20501;-67
2022/12/09 05:25:29;;;;;;;35.55;18.05;;;;;;;-18.30;49.48;98790.91;6321862;28;20036;-66
2022/12/09 05:28:33;;;;;;;33.67;15.40;;;;;;;-18.19;49.03;98796.00;6322301;28;20040;-68
2022/12/09 05:31:40;;;;;;;45.38;16.00;;;;;;;-18.06;48.64;98796.94;6322146;28;20627;-67
2022/12/09 05:34:44;;;;;;;36.22;15.32;;;;;;;-17.90;48.56;98804.91;6322177;28;20039;-67
2022/12/09 05:37:46;;;;;;;45.75;18.27;;;;;;;-17.74;48.45;98804.41;6321567;28;20425;-68
2022/12/09 05:40:50;;;;;;;46.78;15.60;;;;;;;-17.60;48.49;98793.75;6322091;28;20044;-68
2022/12/09 05:43:55;;;;;;;30.75;15.93;;;;;;;-17.45;48.45;98811.63;6322141;28;20138;-68
2022/12/09 05:46:57;;;;;;;;;;;;;;;-17.33;48.73;98812.53;6320627;28;20135;-68
2022/12/09 05:50:04;;;;;;;42.83;16.92;;;;;;;-17.22;48.21;98811.69;6321966;28;19920;-68
2022/12/09 05:53:05;;;;;;;49.13;18.02;;;;;;;-17.07;48.02;98806.03;6321328;28;20056;-68
2022/12/09 05:56:09;;;;;;;28.92;14.55;;;;;;;-16.89;48.12;98809.91;6321890;28;20501;-68
2022/12/09 05:59:10;;;;;;;28.92;16.20;;;;;;;-16.77;47.97;98803.22;6321700;28;20047;-67
2022/12/09 06:02:16;;;;;;;31.80;16.63;;;;;;;-16.62;47.89;98795.84;6321629;28;20044;-69
2022/12/09 06:05:24;;;;;;;27.90;15.10;;;;;;;-16.39;47.96;98807.53;6321381;28;20048;-69
2022/12/09 06:08:26;;;;;;;31.00;14.57;;;;;;;-16.22;47.86;98808.72;6321213;28;20046;-67
2022/12/09 06:11:27;;;;;;;20.58;11.57;;;;;;;-16.05;48.28;98802.34;6320560;28;20085;-68
2022/12/09 06:14:36;;;;;;;33.58;15.93;;;;;;;-15.82;48.30;98803.06;6321582;28;20099;-67
2022/12/09 06:17:40;;;;;;;11.55;7.18;;;;;;;-15.62;48.19;98797.72;6321325;28;20486;-69
2022/12/09 06:20:42;;;;;;;19.00;10.32;;;;;;;-15.42;47.77;98779.72;6320668;28;20048;-68
2022/12/09 06:23:44;;;;;;;13.75;8.27;;;;;;;-15.08;48.25;98789.53;6321398;28;20409;-68
2022/12/09 06:26:45;;;;;;;23.88;11.02;;;;;;;-14.87;48.51;98795.09;6321067;28;20253;-70
2022/12/09 06:29:46;;;;;;;11.50;5.13;;;;;;;-14.74;48.66;98789.22;6320064;28;20044;-68
2022/12/09 06:32:51;;;;;;;19.55;9.55;;;;;;;-14.49;48.31;98789.97;6320827;28;20051;-68
2022/12/09 06:35:52;;;;;;;9.77;6.60;;;;;;;-14.35;48.77;98789.94;6320452;28;20028;-68
2022/12/09 06:38:53;;;;;;;11.70;6.57;;;;;;;-14.18;48.64;98786.81;6320797;28;20032;-69
2022/12/09 06:41:58;;;;;;;14.35;7.25;;;;;;;-14.07;48.91;98784.94;6320749;28;20066;-67
2022/12/09 06:45:02;;;;;;;15.10;8.25;;;;;;;-13.94;48.87;98782.38;6320878;28;20440;-67
2022/12/09 06:48:04;;;;;;;14.98;7.97;;;;;;;-13.82;48.56;98777.19;6320331;28;20517;-67
2022/12/09 06:51:27;;;;;;;11.52;6.95;;;;;;;-13.72;49.18;98789.63;6320558;28;20040;-66
2022/12/09 06:54:28;;;;;;;13.82;6.97;;;;;;;-13.65;48.58;98788.34;6319847;28;20048;-67
2022/12/09 06:57:30;;;;;;;13.50;7.13;;;;;;;-13.68;48.88;98780.56;6320361;28;20076;-69
2022/12/09 07:00:35;;;;;;;13.23;7.68;;;;;;;-13.56;48.86;98788.88;6320545;28;20436;-67
2022/12/09 07:03:44;;;;;;;13.82;7.30;;;;;;;-13.49;49.42;98782.56;6320858;28;20047;-67
2022/12/09 07:07:08;;;;;;;21.40;11.23;;;;;;;-13.38;49.23;98766.34;6320533;28;20059;-68
2022/12/09 07:10:15;;;;;;;19.80;10.82;;;;;;;-13.17;49.21;98777.66;6320580;28;20043;-67
2022/12/09 07:13:16;;;;;;;14.30;9.23;;;;;;;-11.54;48.30;98763.75;6320279;28;20426;-69
2022/12/09 07:16:18;;;;;;;15.65;10.00;;;;;;;-5.63;39.86;98757.88;6320696;28;20032;-68
2022/12/09 07:19:28;;;;;;;;;;;;;;;0.19;33.38;98758.88;6320724;28;20425;-67
2022/12/09 07:22:35;;;;;;;15.98;7.90;;;;;;;4.95;27.23;98756.72;6320260;28;19920;-68
2022/12/09 07:25:38;;;;;;;19.42;10.32;;;;;;;8.21;24.77;98756.78;6320461;28;20051;-67
2022/12/09 07:28:43;;;;;;;18.42;10.52;;;;;;;10.72;21.87;98750.97;6320129;28;20040;-67
2022/12/09 07:31:46;;;;;;;20.70;11.23;;;;;;;12.81;20.95;98745.38;6320472;28;20505;-67
2022/12/09 07:34:50;;;;;;;18.65;10.55;;;;;;;14.28;19.08;98742.91;6318508;28;20059;-67
2022/12/09 07:37:54;;;;;;;17.83;11.55;;;;;;;15.54;18.25;98747.81;6320294;28;20131;-68
2022/12/09 07:41:07;;;;;;;17.90;11.07;;;;;;;16.30;16.21;98747.06;6320167;28;20126;-68
2022/12/09 07:44:14;;;;;;;22.00;13.00;;;;;;;17.20;16.72;98743.47;6319996;28;20044;-68
2022/12/09 07:47:18;;;;;;;21.85;13.52;;;;;;;17.74;16.10;98743.59;6321654;28;20513;-68
2022/12/09 07:50:24;;;;;;;26.77;15.93;;;;;;;18.08;15.21;98731.63;6324590;28;20090;-68
2022/12/09 07:53:26;;;;;;;27.15;18.65;;;;;;;18.76;15.06;98738.63;6322654;28;20524;-69
2022/12/09 07:56:31;;;;;;;27.38;17.27;;;;;;;19.31;14.58;98730.44;6324181;28;20543;-67
2022/12/09 07:59:35;;;;;;;30.55;17.05;;;;;;;19.86;13.97;98740.66;6324793;28;20525;-68
2022/12/09 08:02:41;;;;;;;25.60;16.98;;;;;;;20.23;12.88;98726.41;6324313;28;20532;-68
2022/12/09 08:05:48;;;;;;;24.80;16.83;;;;;;;20.63;12.58;98729.59;6324763;28;20127;-67
2022/12/09 08:08:53;;;;;;;28.95;17.25;;;;;;;21.07;12.60;98739.56;6324008;28;20048;-67
2022/12/09 08:12:03;;;;;;;25.27;16.90;;;;;;;21.33;12.00;98739.31;6323735;28;20101;-68
2022/12/09 08:15:20;;;;;;;26.60;18.33;;;;;;;21.74;12.33;98743.25;6324120;28;20044;-67
2022/12/09 08:18:24;;;;;;;21.95;15.63;;;;;;;21.84;12.09;98754.91;6324014;28;20070;-67
2022/12/09 08:21:30;;;;;;;18.20;11.85;;;;;;;21.36;11.46;98751.63;6324257;28;20055;-67
2022/12/09 08:24:37;;;;;;;17.95;11.85;;;;;;;20.97;11.76;98751.09;6324443;28;20378;-68
2022/12/09 08:27:47;;;;;;;11.50;7.82;;;;;;;21.34;10.92;98757.09;6323882;28;20177;-67
2022/12/09 08:30:51;;;;;;;11.15;7.50;;;;;;;21.51;10.85;98751.31;6324293;28;20565;-68
2022/12/09 08:33:55;;;;;;;9.98;7.22;;;;;;;21.49;10.41;98734.50;6324002;28;20627;-68
2022/12/09 08:36:59;;;;;;;10.57;7.72;;;;;;;21.98;10.29;98751.94;6323716;28;20124;-67
2022/12/09 08:40:10;;;;;;;14.57;9.27;;;;;;;22.55;9.39;98743.72;6322301;28;20107;-68
2022/12/09 08:43:13;;;;;;;19.42;11.73;;;;;;;22.52;9.97;98738.63;6324023;28;20442;-68
2022/12/09 08:46:20;;;;;;;22.63;12.45;;;;;;;22.28;9.57;98737.03;6323050;28;20044;-69
2022/12/09 08:49:24;;;;;;;39.97;19.73;;;;;;;22.14;10.07;98730.09;6323291;28;20048;-68
2022/12/09 08:52:30;;;;;;;41.35;21.27;;;;;;;21.92;9.85;98731.00;6323005;28;20052;-68
2022/12/09 08:55:38;;;;;;;28.02;14.23;;;;;;;21.81;9.83;98733.72;6323307;28;20036;-69
2022/12/09 08:58:42;;;;;;;14.63;8.43;;;;;;;21.70;9.77;98720.34;6322551;28;20135;-69
2022/12/09 09:01:46;;;;;;;14.02;8.93;;;;;;;21.75;9.51;98724.34;6323141;28;20405;-68
2022/12/09 09:04:52;;;;;;;6.63;4.78;;;;;;;21.56;9.46;98720.59;6322457;28;20129;-68
2022/12/09 09:07:53;;;;;;;7.22;3.35;;;;;;;21.58;9.43;98722.19;6321347;28;20050;-69
2022/12/09 09:10:58;;;;;;;2.70;1.75;;;;;;;21.40;9.32;98711.13;6322192;28;20048;-69
2022/12/09 09:14:06;;;;;;;6.25;2.00;;;;;;;21.27;9.58;98723.75;6322786;28;20044;-69
2022/12/09 09:17:15;;;;;;;1.73;1.00;;;;;;;20.17;9.58;98717.88;6321225;28;20074;-69
2022/12/09 09:20:16;;;;;;;11.63;5.88;;;;;;;19.37;10.16;98720.16;6323017;28;20040;-69
2022/12/09 09:23:19;;;;;;;13.13;7.43;;;;;;;19.33;10.18;98715.97;6321953;28;20420;-69
2022/12/09 09:26:26;;;;;;;85.43;13.20;;;;;;;19.61;10.38;98725.53;6322199;28;20054;-69
2022/12/09 09:29:34;;;;;;;6.05;4.07;;;;;;;18.76;10.42;98719.13;6322488;28;20174;-69
2022/12/09 09:32:40;;;;;;;7.50;4.28;;;;;;;18.21;10.31;98710.34;6322495;28;20048;-71
2022/12/09 09:35:52;;;;;;;11.82;6.18;;;;;;;18.15;10.87;98705.44;6322435;28;20039;-69
2022/12/09 09:39:02;;;;;;;27.88;13.07;;;;;;;18.29;10.67;98697.38;6322004;28;20528;-69
2022/12/09 09:42:11;;;;;;;34.80;16.17;;;;;;;18.33;10.82;98693.53;6322276;28;20040;-69
2022/12/09 09:45:21;;;;;;;23.05;10.80;;;;;;;18.19;10.50;98701.59;6321362;28;20055;-68
2022/12/09 09:48:29;;;;;;;15.23;8.02;;;;;;;18.09;10.27;98700.53;6322394;28;20040;-68
2022/12/09 09:51:35;;;;;;;7.00;4.32;;;;;;;18.14;10.46;98711.72;6322088;28;20048;-67
2022/12/09 09:54:36;;;;;;;6.55;2.97;;;;;;;18.02;10.45;98704.53;6321744;28;20051;-68
2022/12/09 09:57:49;;;;;;;;;;;;;;;18.74;10.30;98711.22;6322430;28;20044;-68
2022/12/09 10:01:07;;;;;;;2.20;1.40;;;;;;;17.76;10.48;98701.75;6321278;28;19920;-68
2022/12/09 10:04:27;;;;;;;1.40;0.95;;;;;;;14.27;11.84;98691.75;6320552;28;20048;-69
2022/12/09 10:07:43;;;;;;;2.60;1.13;;;;;;;9.15;14.95;98696.50;6321506;28;20162;-68
2022/12/09 10:10:50;;;;;;;2.38;1.45;;;;;;;5.69;17.44;98693.03;6319740;28;20044;-69
2022/12/09 10:14:13;;;;;;;2.95;1.58;;;;;;;3.40;19.16;98692.22;6320807;28;20040;-68
2022/12/09 10:17:47;;;;;;;2.47;1.20;;;;;;;1.30;21.00;98693.69;6321541;28;20047;-68
2022/12/09 10:20:55;;;;;;;3.38;1.65;;;;;;;-0.29;22.18;98716.25;6321200;28;20046;-68
2022/12/09 10:24:20;;;;;;;4.88;1.50;;;;;;;-1.45;23.29;98700.44;6321182;28;20040;-69
2022/12/09 10:27:42;;;;;;;6.53;2.42;;;;;;;-2.40;24.15;98705.16;6320449;28;20048;-68
2022/12/09 10:30:48;;;;;;;5.05;2.20;;;;;;;-3.16;24.88;98708.13;6321015;28;20044;-69
2022/12/09 10:33:49;;;;;;;4.28;2.67;;;;;;;-3.64;25.56;98705.47;6321216;28;20505;-68
2022/12/09 10:36:57;;;;;;;5.22;2.25;;;;;;;-4.34;26.21;98707.34;6321571;28;20090;-68
2022/12/09 10:40:10;;;;;;;3.85;2.20;;;;;;;-4.58;26.34;98721.34;6321087;28;20040;-68
2022/12/09 10:43:42;;;;;;;8.63;4.35;;;;;;;-4.79;27.78;98720.78;6321209;28;20109;-68
2022/12/09 10:46:47;;;;;;;23.13;9.80;;;;;;;-5.15;27.46;98721.59;6302058;28;20472;-68
2022/12/09 10:49:54;;;;;;;13.27;6.80;;;;;;;-5.56;27.79;98713.59;6320539;28;20421;-68
2022/12/09 10:53:10;;;;;;;17.48;8.02;;;;;;;-5.70;29.24;98730.28;6320165;28;20056;-68
2022/12/09 10:56:18;;;;;;;25.67;10.07;;;;;;;-5.91;29.35;98721.16;6319598;28;20639;-68
2022/12/09 10:59:31;;;;;;;25.00;10.52;;;;;;;-6.13;29.12;98718.78;6320452;28;20039;-68
2022/12/09 11:02:47;;;;;;;32.78;13.35;;;;;;;-6.39;29.83;98716.28;6320492;28;20067;-68
2022/12/09 11:05:56;;;;;;;34.88;15.88;;;;;;;-6.60;30.85;98705.34;6320076;28;20052;-69
2022/12/09 11:09:00;;;;;;;51.63;23.95;;;;;;;-6.82;31.05;98722.59;6320564;28;20413;-69
2022/12/09 11:12:06;;;;;;;46.55;24.85;;;;;;;-7.07;31.27;98722.59;6320681;28;20494;-70
2022/12/09 11:15:28;;;;;;;45.88;20.52;;;;;;;-7.35;31.92;98724.19;6319122;28;20403;-69
2022/12/09 11:18:44;;;;;;;52.17;23.50;;;;;;;-7.65;32.54;98728.19;6319706;28;20417;-69
2022/12/09 11:21:49;;;;;;;56.08;24.05;;;;;;;-7.93;32.42;98739.94;6321044;28;20051;-70
2022/12/09 11:25:10;;;;;;;48.97;23.20;;;;;;;-8.23;33.70;98740.53;6325399;28;20093;-68
2022/12/09 11:28:17;;;;;;;49.78;24.50;;;;;;;-8.49;33.77;98747.19;6325504;28;20039;-69
2022/12/09 11:31:24;;;;;;;61.22;28.90;;;;;;;-8.74;33.47;98755.53;6325364;28;20048;-69
2022/12/09 11:34:28;;;;;;;53.90;22.75;;;;;;;-9.04;33.67;98750.88;6325208;28;20047;-69
2022/12/09 11:37:38;;;;;;;46.78;21.52;;;;;;;-9.23;35.13;98756.00;6325297;28;20044;-69
2022/12/09 11:40:39;;;;;;;38.92;18.83;;;;;;;-9.50;34.43;98759.09;6325082;28;20070;-69
2022/12/09 11:43:53;;;;;;;41.70;19.42;;;;;;;-9.74;35.46;98758.91;6324859;28;20413;-69
2022/12/09 11:47:04;;;;;;;82.65;38.42;;;;;;;-10.19;35.91;98717.81;6324817;28;20521;-68
2022/12/09 11:50:25;;;;;;;80.32;36.88;;;;;;;-10.46;36.25;98727.59;6324598;28;20497;-69
2022/12/09 11:53:38;;;;;;;35.83;19.05;;;;;;;-10.53;35.42;98766.28;6324537;28;20062;-68
2022/12/09 11:56:42;;;;;;;33.92;15.40;;;;;;;-10.76;35.93;98759.19;6324679;28;20040;-68
2022/12/09 11:59:55;;;;;;;41.67;18.92;;;;;;;-10.98;36.63;98768.31;6324442;28;20050;-69
2022/12/09 12:03:11;;;;;;;43.50;20.08;;;;;;;-11.17;36.64;98758.03;6324460;28;20036;-67
2022/12/09 12:06:21;;;;;;;40.38;18.30;;;;;;;-11.34;37.32;98765.66;6324391;28;20044;-68
2022/12/09 12:09:42;;;;;;;36.72;19.92;;;;;;;-11.54;38.14;98761.22;6324220;28;20040;-69
2022/12/09 12:12:59;;;;;;;43.28;21.70;;;;;;;-11.80;38.22;98762.41;6324056;28;20055;-69
2022/12/09 12:16:08;;;;;;;56.60;27.35;;;;;;;-11.94;38.37;98768.41;6324103;28;20332;-68
2022/12/09 12:19:25;;;;;;;50.95;25.13;;;;;;;-12.13;38.82;98772.53;6324029;28;20052;-68
2022/12/09 12:22:45;;;;;;;67.25;27.88;;;;;;;-12.30;37.97;98773.28;6324024;28;20048;-68
2022/12/09 12:25:51;;;;;;;51.22;20.45;;;;;;;-12.51;38.27;98771.31;6324011;28;20052;-66
2022/12/09 12:29:18;;;;;;;48.92;20.10;;;;;;;-12.36;39.86;98768.72;6323933;28;20040;-67
2022/12/09 12:32:51;;;;;;;126.90;44.70;;;;;;;-12.29;39.79;98777.53;6323970;28;20052;-67
2022/12/09 12:36:05;;;;;;;138.02;51.88;;;;;;;-12.48;38.66;98778.19;6323315;28;20039;-68
2022/12/09 12:39:28;;;;;;;184.10;63.03;;;;;;;-12.68;39.88;98788.09;6324028;28;20044;-68
2022/12/09 12:46:15;;;;;;;145.15;54.42;;;;;;;-12.96;40.44;98774.66;6323665;28;20181;-68
2022/12/09 12:46:34;;;;;;;125.85;44.00;;;;;;;-13.11;40.12;98780.56;6321839;28;20143;-67
2022/12/09 12:49:58;;;;;;;105.50;42.17;;;;;;;-13.35;40.00;98779.19;6323071;28;20406;-69
2022/12/09 12:53:39;;;;;;;100.72;38.78;;;;;;;-13.42;40.44;98784.66;6322912;28;20052;-69
2022/12/09 12:56:56;;;;;;;94.80;35.60;;;;;;;-13.58;40.80;98788.81;6323129;28;20040;-67
2022/12/09 13:00:19;;;;;;;94.90;32.63;;;;;;;-13.81;41.12;98776.44;6322977;28;20044;-68
2022/12/09 13:03:48;;;;;;;75.93;29.60;;;;;;;-13.94;40.01;98784.06;6323197;28;20044;-67
2022/12/09 13:07:44;;;;;;;71.78;28.90;;;;;;;-14.08;41.49;98793.31;6322898;28;20048;-68
2022/12/09 13:10:54;;;;;;;69.07;26.98;;;;;;;-14.17;40.98;98793.63;6223493;28;20459;-68
2022/12/09 13:14:06;;;;;;;74.40;29.17;;;;;;;-14.24;40.52;98794.00;6322260;28;20054;-67
2022/12/09 13:17:15;;;;;;;73.93;28.52;;;;;;;-14.37;40.54;98794.03;6322799;28;20044;-68
2022/12/09 13:20:37;;;;;;;69.78;27.15;;;;;;;-14.48;40.98;98791.69;6322999;28;20097;-66
2022/12/09 13:23:58;;;;;;;55.13;24.95;;;;;;;-14.47;40.88;98788.38;6322589;28;20044;-68
2022/12/09 13:27:12;;;;;;;44.53;20.75;;;;;;;-14.50;41.02;98798.28;6322570;28;20437;-68
2022/12/09 13:30:21;;;;;;;20.52;8.90;;;;;;;-14.47;41.44;98798.50;6322690;28;20039;-68
2022/12/09 13:33:59;;;;;;;24.15;11.50;;;;;;;-14.30;43.45;98791.09;6322165;28;20052;-68
2022/12/09 13:37:01;;;;;;;16.00;7.25;;;;;;;-14.14;41.45;98796.34;6321804;28;20514;-68
2022/12/09 13:40:37;;;;;;;;;;;;;;;-13.99;41.02;98803.13;6322822;28;20036;-67
2022/12/09 13:43:39;;;;;;;73.23;27.63;;;;;;;-14.23;40.97;98803.38;6277425;28;19926;-68
2022/12/09 13:46:43;;;;;;;55.33;20.17;;;;;;;-14.41;41.24;98808.13;6321016;28;20040;-70
2022/12/09 13:49:54;;;;;;;75.05;27.75;;;;;;;-14.68;42.31;98802.22;6322164;28;20032;-69
2022/12/09 13:53:16;;;;;;;50.25;19.27;;;;;;;-14.76;42.16;98805.91;6321695;28;20051;-67
2022/12/09 13:56:19;;;;;;;;;;;;;;;-14.61;41.61;98818.66;6322270;28;20048;-68
2022/12/09 13:59:43;;;;;;;68.93;26.92;;;;;;;-14.60;41.64;98821.28;6321892;28;20293;-67
2022/12/09 14:02:59;;;;;;;84.82;30.25;;;;;;;-14.66;42.28;98832.63;6321902;28;20051;-68
2022/12/09 14:06:16;;;;;;;108.15;35.15;;;;;;;-14.68;42.16;98816.53;6321665;28;20044;-68
2022/12/09 14:09:40;;;;;;;146.45;46.67;;;;;;;-14.64;42.57;98819.31;6321197;28;20036;-68
2022/12/09 14:12:57;;;;;;;21.25;9.52;;;;;;;-14.32;42.51;98821.38;6321568;28;20036;-68
2022/12/09 14:16:16;;;;;;;13.50;5.65;;;;;;;-13.70;43.90;98821.00;6321460;28;20490;-67
2022/12/09 14:19:24;;;;;;;12.82;5.43;;;;;;;-13.37;43.23;98822.13;6321034;28;20054;-68
2022/12/09 14:22:33;;;;;;;14.52;4.68;;;;;;;-13.11;43.30;98813.50;6321298;28;20047;-68
2022/12/09 14:25:37;;;;;;;7.35;3.85;;;;;;;-12.86;43.90;98817.47;6320561;28;20066;-68
2022/12/09 14:28:52;;;;;;;7.05;3.70;;;;;;;-12.86;43.34;98822.53;6320451;28;20205;-68